Terminal Aerodrome Forecast
Issued by NWS

Home | Current Version | Previous Version | Text Only | Print | Product List | Glossary On
Versions: 1 2 3 4 5 6 7 8 9 10 11 12 13
000
FTUS46 KSGX 020520
TAFONT
TAF
KONT 020520Z 0206/0312 VRB05KT P6SM FEW014 BKN250
     FM020900 VRB04KT P6SM BKN016 BKN250
     FM021600 24006KT P6SM SCT019 SCT250
     FM022200 25011G18KT P6SM SCT250
     FM030400 VRB05KT P6SM FEW015 FEW250
     FM030700 VRB04KT P6SM BKN016=

USA.gov is the U.S. government's official web portal to all federal, state and local government web resources and services.